Time;durP1;ratioP1;P1;durP2;ratioP2;P2;SDS_P1;SDS_P2;PMS_P1;PMS_P2;Temp;Humidity;BMP_temperature;BMP_pressure;BME280_temperature;BME280_humidity;BME280_pressure;Samples;Min_cycle;Max_cycle;Signal;HPM_P1;HPM_P2
2022/09/14 00:01:41;;;;;;;2.20;2.00;;;;;;;17.22;100.00;97423.61;1704119;82;28169;-87
2022/09/14 00:04:13;;;;;;;2.15;1.95;;;;;;;17.18;100.00;97419.66;1669915;85;28142;-87
2022/09/14 00:06:41;;;;;;;3.67;1.92;;;;;;;17.14;100.00;97421.81;1671210;84;28114;-87
2022/09/14 00:09:14;;;;;;;2.12;1.90;;;;;;;17.15;100.00;97416.86;1673830;85;28069;-87
2022/09/14 00:11:40;;;;;;;2.25;1.35;;;;;;;17.15;100.00;97417.69;1696352;83;28077;-88
2022/09/14 00:14:07;;;;;;;3.58;2.08;;;;;;;17.12;100.00;97419.86;1671471;85;42466;-88
2022/09/14 00:16:36;;;;;;;2.20;1.87;;;;;;;17.11;100.00;97420.84;1695036;84;28106;-88
2022/09/14 00:19:06;;;;;;;2.08;1.80;;;;;;;17.10;100.00;97414.73;1667872;84;28212;-88
2022/09/14 00:21:38;;;;;;;3.67;2.00;;;;;;;17.09;100.00;97412.25;1695842;83;28092;-88
2022/09/14 00:24:10;;;;;;;2.90;1.80;;;;;;;17.09;100.00;97405.64;1699063;83;28081;-88
2022/09/14 00:26:34;;;;;;;3.15;1.90;;;;;;;17.08;100.00;97403.50;1696073;83;28077;-88
2022/09/14 00:29:06;;;;;;;2.12;1.92;;;;;;;17.13;100.00;97400.33;1658681;85;28091;-87
2022/09/14 00:31:36;;;;;;;3.42;2.00;;;;;;;17.15;100.00;97397.02;1686858;84;28135;-88
2022/09/14 00:34:16;;;;;;;2.20;1.98;;;;;;;17.16;100.00;97401.32;1672781;83;28136;-87
2022/09/14 00:36:44;;;;;;;2.67;2.00;;;;;;;17.07;100.00;97391.27;1697628;83;28057;-87
2022/09/14 00:39:11;;;;;;;2.87;2.02;;;;;;;17.06;100.00;97400.22;1689344;84;28128;-87
2022/09/14 00:41:42;;;;;;;3.37;2.20;;;;;;;17.09;100.00;97399.03;1694624;84;28166;-87
2022/09/14 00:44:14;;;;;;;2.10;1.90;;;;;;;17.10;100.00;97402.84;1703605;82;28128;-87
2022/09/14 00:46:47;;;;;;;2.37;1.70;;;;;;;17.12;100.00;97402.18;1700100;82;28113;-87
2022/09/14 00:49:20;;;;;;;2.35;1.90;;;;;;;17.12;100.00;97403.50;1688188;84;28107;-87
2022/09/14 00:51:55;;;;;;;4.00;2.05;;;;;;;17.16;100.00;97403.97;1693795;84;28076;-87
2022/09/14 00:54:25;;;;;;;2.75;1.72;;;;;;;17.17;100.00;97404.80;1693114;84;28010;-88
2022/09/14 00:56:53;;;;;;;2.67;1.92;;;;;;;17.17;100.00;97399.50;1690973;84;28049;-87
2022/09/14 00:59:34;;;;;;;2.20;1.72;;;;;;;17.18;100.00;97401.16;1668073;84;47611;-87
2022/09/14 01:02:01;;;;;;;2.05;1.70;;;;;;;17.17;100.00;97396.37;1688237;82;28010;-87
2022/09/14 01:04:30;;;;;;;2.25;1.77;;;;;;;17.20;100.00;97396.00;1691792;84;28073;-87
2022/09/14 01:07:16;;;;;;;2.10;1.70;;;;;;;17.23;100.00;97395.67;1686128;84;28084;-88
2022/09/14 01:09:49;;;;;;;2.12;1.70;;;;;;;17.28;100.00;97397.79;1687958;82;28116;-87
2022/09/14 01:12:22;;;;;;;2.20;2.00;;;;;;;17.24;100.00;97395.97;1684075;84;28081;-87
2022/09/14 01:15:13;;;;;;;3.08;1.72;;;;;;;17.24;100.00;97391.21;1684857;82;28126;-87
2022/09/14 01:17:44;;;;;;;2.55;1.70;;;;;;;17.23;100.00;97391.70;1688122;82;28173;-87
2022/09/14 01:20:29;;;;;;;3.00;1.87;;;;;;;17.22;100.00;97383.94;1684955;84;28069;-87
2022/09/14 01:23:33;;;;;;;3.27;1.85;;;;;;;17.19;100.00;97381.63;1690810;82;28275;-87
2022/09/14 01:26:31;;;;;;;3.02;1.82;;;;;;;17.22;100.00;97376.01;1690311;84;28261;-86
2022/09/14 01:29:13;;;;;;;3.25;1.80;;;;;;;17.27;100.00;97385.56;1688128;83;28107;-87
2022/09/14 01:31:48;;;;;;;3.67;1.80;;;;;;;17.24;100.00;97382.75;1688436;84;28121;-87
2022/09/14 01:34:21;;;;;;;2.92;1.92;;;;;;;17.25;100.00;97384.91;1688524;84;28066;-87
2022/09/14 01:36:51;;;;;;;4.00;2.20;;;;;;;17.29;100.00;97384.38;1685274;83;28069;-87
2022/09/14 01:39:21;;;;;;;4.12;1.60;;;;;;;17.27;100.00;97374.48;1683504;84;28109;-87
2022/09/14 01:41:51;;;;;;;2.55;1.90;;;;;;;17.29;100.00;97384.90;1689875;82;28286;-87
2022/09/14 01:44:21;;;;;;;4.00;1.75;;;;;;;17.33;100.00;97378.25;1684986;84;28079;-88
2022/09/14 01:46:56;;;;;;;3.00;1.80;;;;;;;17.33;100.00;97375.61;1686667;83;28077;-87
2022/09/14 01:49:54;;;;;;;2.00;1.80;;;;;;;17.34;100.00;97374.13;1686318;82;28053;-88
2022/09/14 01:52:27;;;;;;;1.45;1.35;;;;;;;17.36;100.00;97374.75;1690025;83;28124;-87
2022/09/14 01:55:06;;;;;;;3.17;2.08;;;;;;;17.34;100.00;97368.00;1691152;84;28105;-86
2022/09/14 01:57:41;;;;;;;3.08;2.10;;;;;;;17.36;100.00;97373.42;1698436;82;28060;-87
2022/09/14 02:00:16;;;;;;;3.50;1.87;;;;;;;17.34;100.00;97369.33;1694848;84;28065;-86
2022/09/14 02:02:43;;;;;;;;;;;;;;;17.33;100.00;97367.67;1699567;84;28128;-87
2022/09/14 02:05:21;;;;;;;1.92;1.60;;;;;;;17.33;100.00;97365.86;1688601;84;22754;-87
2022/09/14 02:07:49;;;;;;;2.45;1.87;;;;;;;17.35;100.00;97361.69;1692148;84;28136;-87
2022/09/14 02:10:17;;;;;;;2.85;2.10;;;;;;;17.33;100.00;97360.56;1664703;85;28084;-87
2022/09/14 02:12:43;;;;;;;2.72;1.70;;;;;;;17.30;100.00;97362.22;1695539;83;28120;-86
2022/09/14 02:15:12;;;;;;;3.20;1.90;;;;;;;17.25;100.00;97359.78;1691719;83;28135;-87
2022/09/14 02:17:39;;;;;;;3.40;1.65;;;;;;;17.24;100.00;97352.34;1660941;85;28139;-86
2022/09/14 02:20:09;;;;;;;3.70;1.90;;;;;;;17.26;100.00;97337.14;1692047;84;28066;-86
2022/09/14 02:22:37;;;;;;;4.12;2.02;;;;;;;17.27;100.00;97340.61;1691829;84;28065;-87
2022/09/14 02:25:04;;;;;;;3.77;2.15;;;;;;;17.32;100.00;97340.41;1670992;85;28124;-87
2022/09/14 02:27:30;;;;;;;4.15;1.75;;;;;;;17.31;100.00;97332.64;1688233;83;28052;-87
2022/09/14 02:29:59;;;;;;;3.12;1.85;;;;;;;17.30;100.00;97337.10;1670980;85;28168;-87
2022/09/14 02:32:39;;;;;;;3.15;2.25;;;;;;;17.33;100.00;97333.30;1673581;85;28150;-87
2022/09/14 02:35:14;;;;;;;2.95;1.60;;;;;;;17.31;100.00;97332.64;1685097;83;28115;-87
2022/09/14 02:38:16;;;;;;;2.55;1.75;;;;;;;17.31;100.00;97333.46;1678710;83;28105;-86
2022/09/14 02:40:55;;;;;;;2.77;1.80;;;;;;;17.25;100.00;97334.16;1686762;83;28126;-88
2022/09/14 02:43:27;;;;;;;2.30;1.72;;;;;;;17.24;100.00;97332.52;1702040;83;28157;-88
2022/09/14 02:46:12;;;;;;;2.35;1.50;;;;;;;17.25;100.00;97326.73;1702502;82;28208;-87
2022/09/14 02:48:51;;;;;;;3.22;2.05;;;;;;;17.30;100.00;97329.66;1679362;84;28210;-87
2022/09/14 02:51:39;;;;;;;2.30;1.55;;;;;;;17.31;100.00;97316.27;1702113;83;28072;-88
2022/09/14 02:54:31;;;;;;;3.27;1.72;;;;;;;17.31;100.00;97314.95;1702563;83;28081;-88
2022/09/14 02:57:02;;;;;;;3.45;1.77;;;;;;;17.28;100.00;97315.32;1694557;84;28180;-87
2022/09/14 02:59:29;;;;;;;2.85;1.70;;;;;;;17.30;100.00;97323.05;1690221;83;28105;-87
2022/09/14 03:02:01;;;;;;;3.60;1.90;;;;;;;17.28;100.00;97322.42;1689264;83;28073;-87
2022/09/14 03:04:27;;;;;;;1.92;1.72;;;;;;;17.28;100.00;97318.46;1690155;84;28467;-87
2022/09/14 03:06:53;;;;;;;2.70;2.12;;;;;;;17.26;100.00;97325.23;1686375;84;28129;-87
2022/09/14 03:09:20;;;;;;;3.02;2.30;;;;;;;17.26;100.00;97324.41;1686139;83;42391;-87
2022/09/14 03:11:46;;;;;;;1.72;1.50;;;;;;;17.26;100.00;97332.34;1662464;85;28111;-86
2022/09/14 03:14:12;;;;;;;2.27;1.70;;;;;;;17.24;100.00;97325.11;1689349;84;28069;-86
2022/09/14 03:16:45;;;;;;;3.30;1.92;;;;;;;17.23;100.00;97332.21;1687116;84;42376;-87
2022/09/14 03:19:11;;;;;;;2.92;1.50;;;;;;;17.25;100.00;97328.05;1689513;83;28075;-87
2022/09/14 03:21:38;;;;;;;2.77;1.95;;;;;;;17.18;100.00;97328.45;1704273;82;28055;-87
2022/09/14 03:24:06;;;;;;;1.85;1.75;;;;;;;17.14;100.00;97331.92;1650702;84;28072;-87
2022/09/14 03:26:35;;;;;;;2.58;2.02;;;;;;;17.07;100.00;97333.64;1690081;83;28087;-87
2022/09/14 03:29:00;;;;;;;1.92;1.60;;;;;;;17.08;100.00;97336.09;1692434;83;27995;-87
2022/09/14 03:31:27;;;;;;;2.47;1.72;;;;;;;17.13;100.00;97337.70;1686751;84;28089;-87
2022/09/14 03:33:55;;;;;;;2.58;2.20;;;;;;;17.14;100.00;97331.92;1687379;84;28142;-87
2022/09/14 03:36:23;;;;;;;4.55;2.30;;;;;;;17.11;100.00;97327.82;1661959;84;28111;-87
2022/09/14 03:38:51;;;;;;;4.08;2.10;;;;;;;17.11;100.00;97335.75;1706218;82;28100;-87
2022/09/14 03:41:19;;;;;;;4.87;2.15;;;;;;;17.13;100.00;97333.73;1706836;82;28082;-87
2022/09/14 03:43:46;;;;;;;3.02;2.17;;;;;;;17.17;100.00;97330.27;1706942;83;28168;-87
2022/09/14 03:46:23;;;;;;;3.22;2.15;;;;;;;17.16;100.00;97325.97;1687807;83;28176;-87
2022/09/14 03:48:51;;;;;;;3.92;2.08;;;;;;;17.17;100.00;97314.90;1688765;84;28143;-87
2022/09/14 03:51:17;;;;;;;3.50;1.87;;;;;;;17.09;100.00;97316.59;1684619;84;28151;-87
2022/09/14 03:53:44;;;;;;;3.02;2.27;;;;;;;17.09;100.00;97327.66;1685593;84;28077;-87
2022/09/14 03:56:15;;;;;;;3.52;2.20;;;;;;;17.08;100.00;97323.36;1682753;83;28025;-87
2022/09/14 03:58:45;;;;;;;4.67;2.00;;;;;;;17.06;100.00;97327.53;1690888;83;28139;-87
2022/09/14 04:01:14;;;;;;;3.58;2.05;;;;;;;17.07;100.00;97322.53;1685307;84;28082;-87
2022/09/14 04:03:41;;;;;;;3.62;2.05;;;;;;;17.07;100.00;97309.84;1687141;84;28096;-87
2022/09/14 04:06:08;;;;;;;2.00;1.80;;;;;;;17.06;100.00;97305.55;1687268;83;28073;-87
2022/09/14 04:08:37;;;;;;;4.00;2.35;;;;;;;17.07;100.00;97308.53;1691106;83;28108;-87
2022/09/14 04:11:09;;;;;;;2.75;2.30;;;;;;;17.02;100.00;97309.02;1688014;83;28133;-86
2022/09/14 04:13:36;;;;;;;3.80;2.20;;;;;;;17.00;100.00;97300.96;1690703;84;28108;-87
2022/09/14 04:16:03;;;;;;;5.62;2.15;;;;;;;17.02;100.00;97305.06;1690131;83;28119;-87
2022/09/14 04:18:35;;;;;;;2.77;1.90;;;;;;;17.04;100.00;97299.61;1690735;84;28131;-87
2022/09/14 04:21:05;;;;;;;3.92;2.25;;;;;;;17.06;100.00;97302.41;1690256;83;28018;-86
2022/09/14 04:23:32;;;;;;;4.10;2.02;;;;;;;17.07;100.00;97299.27;1687094;84;27994;-86
2022/09/14 04:26:16;;;;;;;3.67;2.30;;;;;;;17.05;100.00;97300.77;1691293;83;28207;-86
2022/09/14 04:28:43;;;;;;;2.37;2.15;;;;;;;17.05;100.00;97297.30;1689557;83;28205;-87
2022/09/14 04:31:15;;;;;;;3.15;1.90;;;;;;;17.04;100.00;97300.43;1689804;83;28030;-87
2022/09/14 04:33:49;;;;;;;2.85;2.50;;;;;;;17.02;100.00;97304.27;1689499;84;28069;-87
2022/09/14 04:36:18;;;;;;;2.98;2.08;;;;;;;16.98;100.00;97309.06;1684419;83;28065;-87
2022/09/14 04:38:45;;;;;;;2.42;2.02;;;;;;;16.93;100.00;97302.65;1690365;83;28085;-87
2022/09/14 04:41:19;;;;;;;4.28;2.08;;;;;;;16.94;100.00;97297.69;1694406;84;28088;-87
2022/09/14 04:43:48;;;;;;;2.90;2.27;;;;;;;16.98;100.00;97302.45;1690295;83;28081;-87
2022/09/14 04:46:19;;;;;;;3.55;2.15;;;;;;;16.99;100.00;97298.81;1687126;83;28069;-87
2022/09/14 04:48:47;;;;;;;2.92;2.02;;;;;;;17.02;100.00;97293.16;1689887;83;28069;-87
2022/09/14 04:51:18;;;;;;;1.90;1.65;;;;;;;17.02;100.00;97283.91;1688544;84;28101;-87
2022/09/14 04:53:46;;;;;;;3.98;2.25;;;;;;;17.05;100.00;97289.36;1685943;84;28460;-87
2022/09/14 04:56:16;;;;;;;5.22;2.20;;;;;;;17.01;100.00;97287.58;1687862;84;28085;-87
2022/09/14 04:58:50;;;;;;;2.92;1.67;;;;;;;17.04;100.00;97286.39;1681483;83;28084;-86
2022/09/14 05:01:21;;;;;;;3.85;1.85;;;;;;;17.05;100.00;97283.58;1688285;82;28172;-88
2022/09/14 05:03:47;;;;;;;3.50;1.90;;;;;;;17.06;100.00;97280.44;1693377;82;28053;-87
2022/09/14 05:06:22;;;;;;;3.05;1.90;;;;;;;17.08;100.00;97285.86;1687311;83;28154;-87
2022/09/14 05:08:50;;;;;;;2.02;1.77;;;;;;;17.07;100.00;97288.70;1688685;84;28080;-86
2022/09/14 05:11:19;;;;;;;2.65;1.95;;;;;;;17.07;100.00;97297.42;1690658;84;28089;-87
2022/09/14 05:13:48;;;;;;;3.12;1.90;;;;;;;17.11;100.00;97297.42;1687457;83;28092;-87
2022/09/14 05:16:21;;;;;;;2.47;2.15;;;;;;;17.19;100.00;97299.66;1688955;84;28234;-86
2022/09/14 05:18:48;;;;;;;2.83;1.90;;;;;;;17.25;100.00;97308.22;1691135;84;28182;-86
2022/09/14 05:21:18;;;;;;;2.25;1.70;;;;;;;17.30;100.00;97309.83;1689320;84;28081;-87
2022/09/14 05:23:57;;;;;;;3.25;1.87;;;;;;;17.35;100.00;97315.41;1691590;84;28084;-87
2022/09/14 05:26:25;;;;;;;2.83;2.20;;;;;;;17.37;100.00;97314.25;1688221;84;28136;-87
2022/09/14 05:28:54;;;;;;;3.75;2.30;;;;;;;17.35;100.00;97314.91;1692894;84;28085;-87
2022/09/14 05:31:23;;;;;;;3.47;2.25;;;;;;;17.32;100.00;97298.59;1687131;84;28081;-88
2022/09/14 05:33:49;;;;;;;2.62;1.85;;;;;;;17.45;100.00;97323.95;1684584;84;28069;-86
2022/09/14 05:36:16;;;;;;;4.03;1.90;;;;;;;17.46;100.00;97316.32;1686286;84;28089;-86
2022/09/14 05:38:44;;;;;;;4.60;2.25;;;;;;;17.39;100.00;97316.73;1689858;84;28191;-85
2022/09/14 05:41:13;;;;;;;2.98;1.82;;;;;;;17.40;100.00;97321.02;1698765;83;28005;-86
2022/09/14 05:43:45;;;;;;;5.78;2.62;;;;;;;17.42;100.00;97324.30;1683334;84;28077;-85
2022/09/14 05:46:14;;;;;;;6.55;2.02;;;;;;;17.48;100.00;97320.94;1691840;83;28099;-86
2022/09/14 05:48:41;;;;;;;3.33;2.08;;;;;;;17.52;100.00;97312.97;1688684;82;28106;-86
2022/09/14 05:51:15;;;;;;;3.50;1.87;;;;;;;17.57;100.00;97311.93;1645564;84;28150;-86
2022/09/14 05:53:44;;;;;;;2.10;1.80;;;;;;;17.61;100.00;97311.95;1624671;83;28086;-86
2022/09/14 05:56:13;;;;;;;3.72;1.92;;;;;;;17.57;100.00;97311.44;1688733;84;28162;-86
2022/09/14 05:58:41;;;;;;;3.22;1.92;;;;;;;17.61;100.00;97311.95;1676212;85;28072;-86
2022/09/14 06:01:14;;;;;;;3.90;1.85;;;;;;;17.69;100.00;97315.01;1690294;83;28104;-85
2022/09/14 06:03:42;;;;;;;2.35;2.15;;;;;;;17.70;100.00;97312.19;1668445;85;28080;-86
2022/09/14 06:06:17;;;;;;;6.33;2.00;;;;;;;17.76;100.00;97314.62;1697992;83;28052;-86
2022/09/14 06:08:51;;;;;;;3.72;2.20;;;;;;;17.85;100.00;97306.92;1681541;84;28107;-85
2022/09/14 06:11:16;;;;;;;2.98;1.90;;;;;;;17.90;100.00;97309.34;1669330;84;28147;-86
2022/09/14 06:13:44;;;;;;;2.77;2.15;;;;;;;17.96;100.00;97302.02;1674237;84;28087;-86
2022/09/14 06:16:20;;;;;;;3.75;2.00;;;;;;;18.01;100.00;97300.14;1676354;84;28079;-86
2022/09/14 06:18:46;;;;;;;3.83;2.08;;;;;;;18.01;100.00;97296.66;1674816;84;28142;-86
2022/09/14 06:21:21;;;;;;;5.30;1.98;;;;;;;18.09;100.00;97295.27;1676145;84;28156;-86
2022/09/14 06:23:48;;;;;;;2.90;1.92;;;;;;;18.11;100.00;97306.52;1678508;84;28069;-86
2022/09/14 06:26:16;;;;;;;2.72;1.92;;;;;;;18.14;100.00;97304.31;1672760;84;28069;-86
2022/09/14 06:28:42;;;;;;;2.15;1.82;;;;;;;18.17;100.00;97299.96;1676431;83;28082;-86
2022/09/14 06:31:13;;;;;;;3.87;2.20;;;;;;;18.17;100.00;97293.84;1706026;83;28066;-86
2022/09/14 06:33:49;;;;;;;3.15;2.52;;;;;;;18.20;100.00;97294.81;1695583;83;28042;-86
2022/09/14 06:36:23;;;;;;;2.50;1.90;;;;;;;18.26;100.00;97294.09;1669228;84;28114;-86
2022/09/14 06:38:51;;;;;;;5.80;2.17;;;;;;;18.31;100.00;97292.54;1655349;84;28084;-86
2022/09/14 06:41:29;;;;;;;6.22;2.10;;;;;;;18.36;100.00;97303.91;1704095;83;28006;-86
2022/09/14 06:43:57;;;;;;;5.65;2.08;;;;;;;18.39;100.00;97306.17;1696998;82;28502;-87
2022/09/14 06:46:28;;;;;;;2.30;2.10;;;;;;;18.40;100.00;97312.63;1669367;83;28030;-86
2022/09/14 06:48:58;;;;;;;1.95;1.70;;;;;;;18.44;100.00;97314.39;1677305;83;28087;-87
2022/09/14 06:51:33;;;;;;;4.62;2.30;;;;;;;18.49;100.00;97309.89;1677349;83;28184;-86
2022/09/14 06:54:01;;;;;;;5.22;2.27;;;;;;;18.48;100.00;97311.72;1704123;83;28102;-86
2022/09/14 06:56:29;;;;;;;3.85;2.52;;;;;;;18.50;100.00;97314.16;1705310;83;28059;-86
2022/09/14 06:58:57;;;;;;;3.08;1.80;;;;;;;18.54;100.00;97313.66;1673214;84;28065;-86
2022/09/14 07:01:26;;;;;;;6.22;2.08;;;;;;;18.60;100.00;97322.70;1680692;83;28115;-86
2022/09/14 07:03:53;;;;;;;3.80;2.02;;;;;;;18.58;100.00;97316.75;1670427;84;28083;-86
2022/09/14 07:06:31;;;;;;;2.65;1.77;;;;;;;18.61;100.00;97323.82;1704196;82;28036;-86
2022/09/14 07:08:58;;;;;;;3.40;1.85;;;;;;;18.65;100.00;97317.17;1674817;84;28107;-86
2022/09/14 07:11:32;;;;;;;2.42;1.90;;;;;;;18.63;100.00;97311.22;1676485;84;28134;-86
2022/09/14 07:14:00;;;;;;;2.83;1.87;;;;;;;18.66;100.00;97316.14;1660782;84;28033;-86
2022/09/14 07:16:29;;;;;;;3.25;2.05;;;;;;;18.73;100.00;97308.27;1671126;84;28057;-86
2022/09/14 07:19:04;;;;;;;2.85;2.22;;;;;;;18.80;100.00;97313.98;1698812;83;28092;-86
2022/09/14 07:21:36;;;;;;;2.83;2.00;;;;;;;18.88;100.00;97311.71;1705568;83;28064;-86
2022/09/14 07:24:11;;;;;;;2.08;1.82;;;;;;;18.94;100.00;97310.14;1659655;85;28227;-86
2022/09/14 07:26:41;;;;;;;3.37;2.70;;;;;;;18.99;100.00;97309.91;1677633;84;28142;-87
2022/09/14 07:29:10;;;;;;;3.98;1.85;;;;;;;19.01;100.00;97316.35;1681098;84;28081;-87
2022/09/14 07:31:46;;;;;;;3.92;2.20;;;;;;;19.07;100.00;97312.95;1707654;82;28085;-86
2022/09/14 07:34:14;;;;;;;3.65;2.08;;;;;;;19.11;100.00;97317.69;1696592;83;28163;-86
2022/09/14 07:36:44;;;;;;;3.40;2.30;;;;;;;19.17;100.00;97316.94;1666436;84;28076;-86
2022/09/14 07:39:14;;;;;;;4.85;2.30;;;;;;;19.25;100.00;97320.49;1650271;83;28053;-86
2022/09/14 07:41:40;;;;;;;5.53;2.60;;;;;;;19.37;100.00;97317.63;1702457;82;28081;-86
2022/09/14 07:44:11;;;;;;;4.80;2.12;;;;;;;19.49;100.00;97322.28;1706246;82;28135;-86
2022/09/14 07:46:40;;;;;;;4.80;2.50;;;;;;;19.59;100.00;97326.77;1699767;82;28150;-86
2022/09/14 07:49:16;;;;;;;2.75;1.70;;;;;;;19.62;100.00;97318.43;1696816;83;28081;-86
2022/09/14 07:51:51;;;;;;;2.98;1.92;;;;;;;19.57;100.00;97318.19;1669600;84;28174;-86
2022/09/14 07:54:18;;;;;;;3.62;2.30;;;;;;;19.51;100.00;97314.97;1705780;82;28088;-86
2022/09/14 07:56:45;;;;;;;4.03;1.80;;;;;;;19.49;100.00;97311.67;1718482;82;28096;-86
2022/09/14 07:59:13;;;;;;;3.95;1.87;;;;;;;19.49;100.00;97316.15;1715402;82;28068;-87
2022/09/14 08:01:39;;;;;;;4.40;1.92;;;;;;;19.53;100.00;97319.55;1720767;82;28104;-87
2022/09/14 08:04:08;;;;;;;3.15;1.65;;;;;;;19.55;100.00;97316.22;1685090;83;28209;-86
2022/09/14 08:06:35;;;;;;;2.62;1.65;;;;;;;19.60;100.00;97316.47;1681533;84;28138;-86
2022/09/14 08:09:07;;;;;;;3.05;2.20;;;;;;;19.66;100.00;97316.20;1687302;83;28016;-86
2022/09/14 08:11:34;;;;;;;1.87;1.60;;;;;;;19.67;100.00;97319.18;1688971;84;28170;-86
2022/09/14 08:14:11;;;;;;;2.83;1.90;;;;;;;19.60;100.00;97320.45;1688595;83;28164;-86
2022/09/14 08:16:41;;;;;;;5.83;2.25;;;;;;;19.57;100.00;97319.52;1686755;84;28062;-86
2022/09/14 08:19:15;;;;;;;3.65;1.98;;;;;;;19.59;100.00;97321.45;1686781;83;28101;-87
2022/09/14 08:21:43;;;;;;;4.65;2.50;;;;;;;19.68;100.00;97319.50;1685361;83;28067;-86
2022/09/14 08:24:11;;;;;;;3.65;2.22;;;;;;;19.77;100.00;97313.03;1689623;83;28079;-86
2022/09/14 08:26:39;;;;;;;8.30;2.85;;;;;;;19.83;100.00;97312.77;1683006;84;28086;-86
2022/09/14 08:29:06;;;;;;;3.12;2.25;;;;;;;19.90;100.00;97319.78;1673506;84;28089;-86
2022/09/14 08:31:36;;;;;;;5.78;2.62;;;;;;;19.98;100.00;97318.30;1687473;83;28130;-87
2022/09/14 08:34:04;;;;;;;4.85;3.10;;;;;;;20.03;100.00;97311.89;1687039;83;28207;-86
2022/09/14 08:36:33;;;;;;;4.05;2.75;;;;;;;20.05;100.00;97308.55;1689247;83;28010;-86
2022/09/14 08:39:00;;;;;;;11.48;3.62;;;;;;;20.04;100.00;97306.08;1689506;83;28074;-86
2022/09/14 08:41:54;;;;;;;7.08;3.70;;;;;;;20.05;100.00;97317.02;1685623;83;28172;-86
2022/09/14 08:44:41;;;;;;;13.90;5.25;;;;;;;20.02;100.00;97321.38;1693003;83;28033;-87
2022/09/14 08:47:20;;;;;;;14.35;4.72;;;;;;;19.98;100.00;97322.78;1687809;84;28152;-87
2022/09/14 08:50:11;;;;;;;10.70;3.80;;;;;;;19.97;100.00;97327.27;1664747;85;28170;-87
2022/09/14 08:52:52;;;;;;;14.18;6.08;;;;;;;20.01;100.00;97327.22;1716268;82;28097;-87
2022/09/14 08:55:28;;;;;;;15.03;5.80;;;;;;;20.07;100.00;97328.29;1677891;82;28119;-87
2022/09/14 08:58:11;;;;;;;15.00;5.75;;;;;;;20.09;100.00;97330.22;1696539;82;28126;-87
2022/09/14 09:01:09;;;;;;;16.50;7.03;;;;;;;20.13;100.00;97329.34;1649614;86;28146;-87
2022/09/14 09:03:57;;;;;;;10.75;5.22;;;;;;;20.15;100.00;97329.95;1662293;83;28203;-86
2022/09/14 09:06:35;;;;;;;12.68;6.35;;;;;;;20.18;100.00;97332.24;1697761;82;28127;-86
2022/09/14 09:09:30;;;;;;;13.75;6.25;;;;;;;20.18;100.00;97330.41;1698504;82;28069;-87
2022/09/14 09:11:57;;;;;;;11.70;5.83;;;;;;;20.19;100.00;97330.70;1697725;84;28081;-87
2022/09/14 09:14:36;;;;;;;14.95;5.53;;;;;;;20.18;100.00;97329.08;1695567;82;28173;-87
2022/09/14 09:17:27;;;;;;;10.25;5.08;;;;;;;20.17;100.00;97329.27;1697880;84;28124;-86
2022/09/14 09:20:04;;;;;;;9.55;4.40;;;;;;;20.16;100.00;97329.77;1665289;82;28124;-87
2022/09/14 09:22:41;;;;;;;9.20;3.98;;;;;;;20.17;100.00;97335.41;1695662;82;28080;-86
2022/09/14 09:25:16;;;;;;;8.30;4.12;;;;;;;20.20;100.00;97334.17;1675874;84;28179;-87
2022/09/14 09:27:43;;;;;;;7.53;4.03;;;;;;;20.22;100.00;97334.81;1696301;84;28092;-87
2022/09/14 09:30:12;;;;;;;8.55;3.58;;;;;;;20.24;100.00;97330.11;1696021;84;28099;-87
2022/09/14 09:32:39;;;;;;;8.28;4.05;;;;;;;20.25;100.00;97331.25;1695952;82;28181;-87
2022/09/14 09:35:05;;;;;;;7.90;4.05;;;;;;;20.27;100.00;97328.41;1699114;83;28073;-87
2022/09/14 09:37:35;;;;;;;7.10;2.90;;;;;;;20.30;100.00;97330.66;1699022;82;28100;-87
2022/09/14 09:40:04;;;;;;;6.72;2.98;;;;;;;20.31;100.00;97329.18;1701909;82;28036;-87
2022/09/14 09:42:30;;;;;;;5.30;2.87;;;;;;;20.33;100.00;97335.63;1697579;83;28006;-87
2022/09/14 09:45:00;;;;;;;5.40;3.00;;;;;;;20.33;100.00;97325.83;1693700;82;28095;-87
2022/09/14 09:47:33;;;;;;;4.08;2.85;;;;;;;20.31;100.00;97325.19;1694681;84;28077;-87
2022/09/14 09:50:06;;;;;;;4.28;2.83;;;;;;;20.26;100.00;97326.26;1699614;82;28037;-87
2022/09/14 09:52:33;;;;;;;4.92;3.08;;;;;;;20.25;100.00;97321.95;1676327;83;28039;-88
2022/09/14 09:55:02;;;;;;;2.87;2.58;;;;;;;20.27;100.00;97323.09;1696817;82;28076;-87
2022/09/14 09:57:32;;;;;;;5.65;2.70;;;;;;;20.29;100.00;97322.41;1696210;82;28052;-88
2022/09/14 10:00:20;;;;;;;5.78;2.70;;;;;;;20.26;100.00;97322.27;1700995;82;28052;-88
2022/09/14 10:02:47;;;;;;;2.75;2.10;;;;;;;20.28;100.00;97316.27;1694144;83;28186;-88
2022/09/14 10:05:27;;;;;;;3.98;2.33;;;;;;;20.19;100.00;97313.43;1687229;83;28467;-88
2022/09/14 10:08:02;;;;;;;1.72;1.42;;;;;;;20.14;100.00;97311.05;1686195;84;46327;-88
2022/09/14 10:10:39;;;;;;;2.35;2.00;;;;;;;20.02;100.00;97308.09;1670976;84;28155;-88
2022/09/14 10:13:26;;;;;;;3.25;2.02;;;;;;;19.96;100.00;97304.41;1688762;84;28073;-88
2022/09/14 10:15:53;;;;;;;3.67;1.70;;;;;;;19.94;100.00;97309.59;1689716;84;28215;-88
2022/09/14 10:18:21;;;;;;;2.92;1.77;;;;;;;19.94;100.00;97305.60;1702754;82;28086;-88
2022/09/14 10:20:59;;;;;;;3.45;2.05;;;;;;;19.93;100.00;97303.95;1692719;82;28160;-88
2022/09/14 10:23:28;;;;;;;3.25;1.90;;;;;;;19.96;100.00;97303.08;1678421;84;28061;-88
2022/09/14 10:26:18;;;;;;;2.72;1.72;;;;;;;19.97;100.00;97302.55;1694661;83;28081;-88
2022/09/14 10:28:47;;;;;;;2.72;1.60;;;;;;;19.97;100.00;97297.23;1689348;84;28081;-88
2022/09/14 10:31:17;;;;;;;1.72;1.40;;;;;;;19.99;100.00;97295.22;1691712;82;28139;-88
2022/09/14 10:33:50;;;;;;;2.22;1.57;;;;;;;20.03;100.00;97296.47;1691394;82;28097;-88
2022/09/14 10:36:26;;;;;;;4.58;1.98;;;;;;;20.02;100.00;97294.81;1700872;83;28094;-88
2022/09/14 10:38:57;;;;;;;3.52;1.32;;;;;;;19.95;100.00;97294.80;1670724;85;28049;-88
2022/09/14 10:41:51;;;;;;;2.60;1.55;;;;;;;19.92;100.00;97291.69;1705496;82;28078;-88
2022/09/14 10:44:38;;;;;;;3.58;1.10;;;;;;;19.89;100.00;97285.45;1624923;86;28187;-88
2022/09/14 10:47:11;;;;;;;2.50;1.40;;;;;;;19.76;100.00;97281.36;1623375;86;28090;-88
2022/09/14 10:50:10;;;;;;;2.02;1.17;;;;;;;19.72;100.00;97282.77;1624140;88;28208;-87
2022/09/14 10:52:55;;;;;;;1.52;1.20;;;;;;;19.72;100.00;97288.89;1632505;85;28122;-88
2022/09/14 10:55:32;;;;;;;3.42;1.50;;;;;;;19.77;100.00;97283.00;1639718;85;28076;-88
2022/09/14 10:58:35;;;;;;;2.15;1.42;;;;;;;19.79;100.00;97283.64;1674066;85;28065;-88
2022/09/14 11:01:26;;;;;;;2.92;1.67;;;;;;;19.82;100.00;97280.59;1689816;83;28207;-88
2022/09/14 11:04:08;;;;;;;5.08;2.10;;;;;;;19.87;100.00;97271.53;1704796;82;27983;-88
2022/09/14 11:06:38;;;;;;;3.77;2.92;;;;;;;19.83;100.00;97272.44;1661777;85;28152;-87
2022/09/14 11:09:08;;;;;;;4.08;2.95;;;;;;;19.78;100.00;97271.38;1710747;82;28062;-87
2022/09/14 11:11:41;;;;;;;4.28;2.90;;;;;;;19.75;100.00;97283.19;1709319;82;28186;-88
2022/09/14 11:14:32;;;;;;;3.45;3.00;;;;;;;19.77;100.00;97281.67;1708284;82;28101;-87
2022/09/14 11:17:12;;;;;;;5.87;3.55;;;;;;;19.85;100.00;97274.41;1709652;83;43096;-87
2022/09/14 11:19:47;;;;;;;5.37;4.22;;;;;;;19.92;100.00;97272.59;1706505;81;28165;-87
2022/09/14 11:22:29;;;;;;;5.58;3.80;;;;;;;19.97;100.00;97278.65;1701630;82;28196;-87
2022/09/14 11:25:04;;;;;;;4.22;3.80;;;;;;;19.97;100.00;97281.30;1702633;82;28102;-87
2022/09/14 11:27:49;;;;;;;5.53;3.70;;;;;;;19.95;100.00;97282.84;1648780;84;28138;-87
2022/09/14 11:30:19;;;;;;;6.35;3.90;;;;;;;19.84;100.00;97275.92;1687821;83;28073;-87
2022/09/14 11:33:02;;;;;;;5.33;3.90;;;;;;;19.78;100.00;97285.48;1693468;83;28082;-87
2022/09/14 11:35:35;;;;;;;4.42;3.95;;;;;;;19.77;100.00;97287.81;1671071;84;28192;-88
2022/09/14 11:38:20;;;;;;;4.97;3.77;;;;;;;19.67;100.00;97293.14;1659807;84;28309;-87
2022/09/14 11:40:53;;;;;;;5.00;3.25;;;;;;;19.60;100.00;97287.27;1641039;84;28115;-88
2022/09/14 11:43:26;;;;;;;5.53;4.08;;;;;;;19.47;100.00;97290.33;1672880;85;28074;-87
2022/09/14 11:45:56;;;;;;;3.60;3.10;;;;;;;19.45;100.00;97284.38;1698592;82;28065;-87
2022/09/14 11:48:29;;;;;;;4.08;3.30;;;;;;;19.41;100.00;97281.27;1692151;82;28026;-87
2022/09/14 11:50:59;;;;;;;3.98;3.22;;;;;;;19.37;100.00;97281.31;1686854;83;28172;-87